createdAt,value
2022-12-14T00:01:54.133Z,44.09
2022-12-14T00:04:21.943Z,43.52
2022-12-14T00:06:49.625Z,43.12
2022-12-14T00:09:17.302Z,42.56
2022-12-14T00:11:44.959Z,42.27
2022-12-14T00:14:12.693Z,42.28
2022-12-14T00:16:40.319Z,41.57
2022-12-14T00:19:14.095Z,41.52
2022-12-14T00:21:41.776Z,41.39
2022-12-14T00:24:10.532Z,40.86
2022-12-14T00:26:38.287Z,40.52
2022-12-14T00:29:06.083Z,39.94
2022-12-14T00:31:33.851Z,39.07
2022-12-14T00:34:01.729Z,39.07
2022-12-14T00:36:31.600Z,37.69
2022-12-14T00:38:59.774Z,37.81
2022-12-14T00:41:27.453Z,37.49
2022-12-14T00:43:55.160Z,36.75
2022-12-14T00:46:23.037Z,36.28
2022-12-14T00:48:50.776Z,36.18
2022-12-14T00:51:18.700Z,35.71
2022-12-14T00:53:46.537Z,35.21
2022-12-14T00:56:14.296Z,34.90
2022-12-14T00:58:41.949Z,35.02
2022-12-14T01:01:15.592Z,34.71
2022-12-14T01:03:43.937Z,35.19
2022-12-14T01:06:20.602Z,36.27
2022-12-14T01:08:49.353Z,36.85
2022-12-14T01:11:17.058Z,34.23
2022-12-14T01:13:44.781Z,31.21
2022-12-14T01:16:17.881Z,32.53
2022-12-14T01:18:45.880Z,34.72
2022-12-14T01:21:19.135Z,36.46
2022-12-14T01:23:48.428Z,37.84
2022-12-14T01:26:18.238Z,39.51
2022-12-14T01:28:47.367Z,41.00
2022-12-14T01:31:18.185Z,42.31
2022-12-14T01:33:46.427Z,45.65
2022-12-14T01:36:16.980Z,52.76
2022-12-14T01:38:45.619Z,47.26
2022-12-14T01:41:25.166Z,41.52
2022-12-14T01:43:55.016Z,38.09
2022-12-14T01:46:25.628Z,36.05
2022-12-14T01:48:59.609Z,34.98
2022-12-14T01:51:29.693Z,35.06
2022-12-14T01:54:00.231Z,34.33
2022-12-14T01:56:30.798Z,32.97
2022-12-14T01:59:03.866Z,31.84
2022-12-14T02:01:31.605Z,31.11
2022-12-14T02:04:00.966Z,29.00
2022-12-14T02:06:35.016Z,29.63
2022-12-14T02:09:06.329Z,31.81
2022-12-14T02:11:48.848Z,33.78
2022-12-14T02:14:16.428Z,35.05
2022-12-14T02:16:44.182Z,36.77
2022-12-14T02:19:11.829Z,38.95
2022-12-14T02:21:57.624Z,40.98
2022-12-14T02:24:48.175Z,46.62
2022-12-14T02:27:34.192Z,45.69
2022-12-14T02:30:06.625Z,43.64
2022-12-14T02:33:11.877Z,43.31
2022-12-14T02:35:44.079Z,37.96
2022-12-14T02:38:36.692Z,36.47
2022-12-14T02:41:38.329Z,34.85
2022-12-14T02:44:26.560Z,34.51
2022-12-14T02:47:02.938Z,34.36
2022-12-14T02:49:48.977Z,34.10
2022-12-14T02:52:45.115Z,33.93
2022-12-14T02:55:22.889Z,33.79
2022-12-14T02:58:00.394Z,33.80
2022-12-14T03:00:32.258Z,33.03
2022-12-14T03:03:01.372Z,32.37
2022-12-14T03:05:29.005Z,32.11
2022-12-14T03:08:12.089Z,32.09
2022-12-14T03:10:50.532Z,32.00
2022-12-14T03:13:36.014Z,31.62
2022-12-14T03:16:40.924Z,31.39
2022-12-14T03:19:26.585Z,32.37
2022-12-14T03:21:59.463Z,32.57
2022-12-14T03:24:41.891Z,32.02
2022-12-14T03:27:20.346Z,31.96
2022-12-14T03:29:55.204Z,32.03
2022-12-14T03:32:26.518Z,32.60
2022-12-14T03:35:10.906Z,33.01
2022-12-14T03:37:38.496Z,33.67
2022-12-14T03:40:10.656Z,34.09
2022-12-14T03:42:44.227Z,34.40
2022-12-14T03:45:26.034Z,34.40
2022-12-14T03:48:23.006Z,35.17
2022-12-14T03:51:14.264Z,36.44
2022-12-14T03:54:05.376Z,34.68
2022-12-14T03:56:38.982Z,32.41
2022-12-14T03:59:13.864Z,31.48
2022-12-14T04:01:51.432Z,31.21
2022-12-14T04:04:27.040Z,30.65
2022-12-14T04:07:02.017Z,30.89
2022-12-14T04:09:51.710Z,31.38
2022-12-14T04:12:51.478Z,29.32
2022-12-14T04:15:43.684Z,29.41
2022-12-14T04:18:40.678Z,29.90
2022-12-14T04:21:29.170Z,30.10
2022-12-14T04:24:20.974Z,30.72
2022-12-14T04:27:16.821Z,31.27
2022-12-14T04:29:57.975Z,32.30
2022-12-14T04:32:32.994Z,32.71
2022-12-14T04:35:13.864Z,33.69
2022-12-14T04:37:45.448Z,33.79
2022-12-14T04:40:32.919Z,34.26
2022-12-14T04:43:09.529Z,35.01
2022-12-14T04:45:45.182Z,35.23
2022-12-14T04:48:31.296Z,35.89
2022-12-14T04:51:09.536Z,35.93
2022-12-14T04:53:38.985Z,35.43
2022-12-14T04:56:20.232Z,34.33
2022-12-14T04:58:48.507Z,34.30
2022-12-14T05:01:41.056Z,35.05
2022-12-14T05:04:30.771Z,34.88
2022-12-14T05:07:20.611Z,34.53
2022-12-14T05:10:04.050Z,35.23
2022-12-14T05:12:41.379Z,36.09
2022-12-14T05:15:32.680Z,36.60
2022-12-14T05:18:05.309Z,36.95
2022-12-14T05:20:32.951Z,37.64
2022-12-14T05:23:00.626Z,38.15
2022-12-14T05:25:28.563Z,38.06
2022-12-14T05:27:56.270Z,37.84
2022-12-14T05:30:23.983Z,37.72
2022-12-14T05:32:53.132Z,38.25
2022-12-14T05:35:21.039Z,39.60
2022-12-14T05:37:49.316Z,40.21
2022-12-14T05:40:17.774Z,40.73
2022-12-14T05:42:48.685Z,40.68
2022-12-14T05:45:20.210Z,40.37
2022-12-14T05:47:47.845Z,40.29
2022-12-14T05:50:15.560Z,40.72
2022-12-14T05:52:43.132Z,42.25
2022-12-14T05:55:10.826Z,42.75
2022-12-14T05:57:38.495Z,43.42
2022-12-14T06:00:06.543Z,44.60
2022-12-14T06:02:34.173Z,45.61
2022-12-14T06:05:01.914Z,46.26
2022-12-14T06:07:29.584Z,46.79
2022-12-14T06:09:57.176Z,47.24
2022-12-14T06:12:24.757Z,48.03
2022-12-14T06:14:52.418Z,47.98
2022-12-14T06:17:20.093Z,48.08
2022-12-14T06:19:49.904Z,46.60
2022-12-14T06:22:18.993Z,45.20
2022-12-14T06:24:46.620Z,46.66
2022-12-14T06:27:14.214Z,46.23
2022-12-14T06:29:41.872Z,42.68
2022-12-14T06:32:09.534Z,39.87
2022-12-14T06:34:40.601Z,37.81
2022-12-14T06:37:09.999Z,35.54
2022-12-14T06:39:37.611Z,34.34
2022-12-14T06:42:06.260Z,33.67
2022-12-14T06:44:33.968Z,32.18
2022-12-14T06:47:01.831Z,31.38
2022-12-14T06:49:29.471Z,31.56
2022-12-14T06:51:57.091Z,30.79
2022-12-14T06:54:24.713Z,30.32
2022-12-14T06:56:52.453Z,31.08
2022-12-14T06:59:20.113Z,31.21
2022-12-14T07:01:49.947Z,30.42
2022-12-14T07:04:21.073Z,30.45
2022-12-14T07:06:48.971Z,31.24
2022-12-14T07:09:16.634Z,32.35
2022-12-14T07:11:44.259Z,32.86
2022-12-14T07:14:16.811Z,33.13
2022-12-14T07:16:48.370Z,33.21
2022-12-14T07:19:17.538Z,34.05
2022-12-14T07:21:45.241Z,34.61
2022-12-14T07:24:12.905Z,35.36
2022-12-14T07:26:40.563Z,36.22
2022-12-14T07:45:25.891Z,37.07
2022-12-14T07:47:53.522Z,37.14
2022-12-14T07:50:21.160Z,38.52
2022-12-14T07:52:48.968Z,40.49
2022-12-14T07:55:16.954Z,42.56
2022-12-14T07:57:45.024Z,43.87
2022-12-14T08:00:13.287Z,49.17
2022-12-14T08:02:41.096Z,52.10
2022-12-14T08:05:12.520Z,49.26
2022-12-14T08:07:40.454Z,47.62
2022-12-14T08:10:08.256Z,47.14
2022-12-14T08:12:35.849Z,46.02
2022-12-14T08:15:03.917Z,47.08
2022-12-14T08:17:32.587Z,44.49
2022-12-14T08:20:00.189Z,40.74
2022-12-14T08:22:27.877Z,39.21
2022-12-14T08:24:55.674Z,38.12
2022-12-14T08:27:23.337Z,37.68
2022-12-14T08:29:51.023Z,37.19
2022-12-14T08:32:19.123Z,35.02
2022-12-14T08:34:46.810Z,34.35
2022-12-14T08:37:14.515Z,35.26
2022-12-14T08:39:42.160Z,37.22
2022-12-14T08:42:09.739Z,39.74
2022-12-14T08:44:37.347Z,40.47
2022-12-14T08:47:05.032Z,40.95
2022-12-14T08:49:33.039Z,42.96
2022-12-14T08:52:00.832Z,45.49
2022-12-14T08:54:28.620Z,46.53
2022-12-14T08:56:56.264Z,46.55
2022-12-14T08:59:52.228Z,49.22
2022-12-14T09:02:13.508Z,49.88
2022-12-14T09:04:41.250Z,50.10
2022-12-14T09:07:08.902Z,51.48
2022-12-14T09:09:37.417Z,52.02
2022-12-14T09:12:07.482Z,53.06
2022-12-14T09:14:35.453Z,54.07
2022-12-14T09:17:03.453Z,53.09
2022-12-14T09:19:31.081Z,53.04
2022-12-14T09:21:58.784Z,53.05
2022-12-14T09:24:26.518Z,52.79
2022-12-14T09:26:54.806Z,53.67
2022-12-14T09:29:22.503Z,54.89
2022-12-14T09:31:50.129Z,55.91
2022-12-14T09:34:17.796Z,56.18
2022-12-14T09:36:45.896Z,56.70
2022-12-14T09:39:15.042Z,57.30
2022-12-14T09:42:00.777Z,57.67
2022-12-14T09:45:06.089Z,61.91
2022-12-14T09:47:45.093Z,61.07
2022-12-14T09:50:17.545Z,56.56
2022-12-14T09:52:48.771Z,54.78
2022-12-14T09:55:29.283Z,53.72
2022-12-14T09:58:05.229Z,54.75
2022-12-14T10:00:37.687Z,50.86
2022-12-14T10:03:17.816Z,47.72
2022-12-14T10:06:09.582Z,46.07
2022-12-14T10:08:52.698Z,44.75
2022-12-14T10:11:35.517Z,42.91
2022-12-14T10:14:18.323Z,43.12
2022-12-14T10:17:27.331Z,42.51
2022-12-14T10:19:57.396Z,42.73
2022-12-14T10:22:34.488Z,42.85
2022-12-14T10:25:14.156Z,43.03
2022-12-14T10:30:41.958Z,43.90
2022-12-14T10:33:29.462Z,44.45
2022-12-14T10:36:06.877Z,42.82
2022-12-14T10:38:43.867Z,42.49
2022-12-14T10:41:32.752Z,42.92
2022-12-14T10:44:06.515Z,43.63
2022-12-14T10:46:51.799Z,43.40
2022-12-14T10:49:27.991Z,43.47
2022-12-14T10:52:00.171Z,43.86
2022-12-14T10:54:43.306Z,44.46
2022-12-14T10:57:22.624Z,44.88
2022-12-14T11:00:05.732Z,45.30
2022-12-14T11:02:41.129Z,46.76
2022-12-14T11:05:37.692Z,45.27
2022-12-14T11:08:07.311Z,44.45
2022-12-14T11:10:39.255Z,44.64
2022-12-14T11:13:16.761Z,44.92
2022-12-14T11:15:47.292Z,45.03
2022-12-14T11:18:15.526Z,45.71
2022-12-14T11:20:53.984Z,46.07
2022-12-14T11:23:37.517Z,46.88
2022-12-14T11:26:31.272Z,46.54
2022-12-14T11:29:01.228Z,46.29
2022-12-14T11:31:28.997Z,46.13
2022-12-14T11:33:59.305Z,46.91
2022-12-14T11:36:33.341Z,47.12
2022-12-14T11:39:18.190Z,47.28
2022-12-14T11:41:52.297Z,47.56
2022-12-14T11:44:28.616Z,48.01
2022-12-14T11:46:59.225Z,47.43
2022-12-14T11:49:30.118Z,47.02
2022-12-14T11:52:02.266Z,47.62
2022-12-14T11:54:41.148Z,47.42
2022-12-14T11:57:19.893Z,47.88
2022-12-14T11:59:57.591Z,48.77
2022-12-14T12:02:30.975Z,48.56
2022-12-14T12:05:07.767Z,47.79
2022-12-14T12:07:39.095Z,47.24
2022-12-14T12:10:09.804Z,47.94
2022-12-14T12:12:38.735Z,47.51
2022-12-14T12:15:15.927Z,47.71
2022-12-14T12:17:46.760Z,48.23
2022-12-14T12:20:23.430Z,48.51
2022-12-14T12:22:56.486Z,48.71
2022-12-14T12:25:32.115Z,47.96
2022-12-14T12:28:14.213Z,48.68
2022-12-14T12:30:47.835Z,48.88
2022-12-14T12:33:27.849Z,49.38
2022-12-14T12:36:00.686Z,49.73
2022-12-14T12:39:01.002Z,49.89
2022-12-14T12:42:04.972Z,49.45
2022-12-14T12:44:50.551Z,50.76
2022-12-14T12:47:46.223Z,51.88
2022-12-14T12:50:37.074Z,50.08
2022-12-14T12:53:19.234Z,48.52
2022-12-14T12:55:58.243Z,47.66
2022-12-14T12:58:30.389Z,48.32
2022-12-14T13:01:02.232Z,49.18
2022-12-14T13:03:37.425Z,48.53
2022-12-14T13:06:20.663Z,45.83
2022-12-14T13:08:56.566Z,45.24
2022-12-14T13:11:38.036Z,45.13
2022-12-14T13:14:20.233Z,45.11
2022-12-14T13:16:50.770Z,46.43
2022-12-14T13:19:51.187Z,46.76
2022-12-14T13:22:27.856Z,49.72
2022-12-14T13:25:00.027Z,47.45
2022-12-14T13:27:59.145Z,45.13
2022-12-14T13:30:35.752Z,45.18
2022-12-14T13:33:25.411Z,45.22
2022-12-14T13:36:11.616Z,46.72
2022-12-14T13:38:39.583Z,49.59
2022-12-14T13:41:13.430Z,49.06
2022-12-14T13:43:47.234Z,44.68
2022-12-14T13:46:27.396Z,44.42
2022-12-14T13:49:06.382Z,44.88
2022-12-14T13:51:46.316Z,45.28
2022-12-14T13:54:33.383Z,45.61
2022-12-14T13:57:11.360Z,45.15
2022-12-14T13:59:43.573Z,45.01
2022-12-14T14:02:29.955Z,44.39
2022-12-14T14:05:19.265Z,44.61
2022-12-14T14:08:03.449Z,44.77
2022-12-14T14:10:36.738Z,45.17
2022-12-14T14:13:27.090Z,46.47
2022-12-14T14:16:28.055Z,47.19
2022-12-14T14:19:08.659Z,44.88
2022-12-14T14:22:22.355Z,45.25
2022-12-14T14:24:52.218Z,45.05
2022-12-14T14:27:23.641Z,44.33
2022-12-14T14:29:52.355Z,44.65
2022-12-14T14:32:40.135Z,43.66
2022-12-14T14:35:23.904Z,43.21
2022-12-14T14:38:09.984Z,42.78
2022-12-14T14:41:13.954Z,42.18
2022-12-14T14:43:36.563Z,42.14
2022-12-14T14:46:10.111Z,42.27
2022-12-14T14:48:54.636Z,42.61
2022-12-14T14:51:28.418Z,42.79
2022-12-14T14:54:44.833Z,43.46
2022-12-14T14:57:34.330Z,44.46
2022-12-14T15:00:04.560Z,45.27
2022-12-14T15:02:42.930Z,46.06
2022-12-14T15:08:42.799Z,47.03
2022-12-14T15:11:20.228Z,47.62
2022-12-14T15:13:54.018Z,47.48
2022-12-14T15:16:31.247Z,47.68
2022-12-14T15:19:27.878Z,48.50
2022-12-14T15:22:07.902Z,48.45
2022-12-14T15:24:41.482Z,49.02
2022-12-14T15:27:30.597Z,49.00
2022-12-14T15:30:05.669Z,49.23
2022-12-14T15:32:41.752Z,49.88
2022-12-14T15:35:17.447Z,51.06
2022-12-14T15:38:00.397Z,51.07
2022-12-14T15:40:30.718Z,51.00
2022-12-14T15:42:58.388Z,51.09
2022-12-14T15:45:41.450Z,51.08
2022-12-14T15:48:21.738Z,51.44
2022-12-14T15:50:54.287Z,51.58
2022-12-14T15:53:54.990Z,52.12
2022-12-14T15:56:32.195Z,51.26
2022-12-14T15:59:35.186Z,50.72
2022-12-14T16:02:15.457Z,50.94
2022-12-14T16:04:44.677Z,50.38
2022-12-14T16:07:23.861Z,50.20
2022-12-14T16:09:56.894Z,50.91
2022-12-14T16:12:42.638Z,50.81
2022-12-14T16:15:28.347Z,48.99
2022-12-14T16:18:02.615Z,49.14
2022-12-14T16:20:37.268Z,49.58
2022-12-14T16:23:17.623Z,49.45
2022-12-14T16:26:03.225Z,50.47
2022-12-14T16:28:34.641Z,49.48
2022-12-14T16:31:05.599Z,46.56
2022-12-14T16:33:36.240Z,46.46
2022-12-14T16:36:26.372Z,47.26
2022-12-14T16:39:22.093Z,48.32
2022-12-14T16:41:53.264Z,48.64
2022-12-14T16:44:24.424Z,49.48
2022-12-14T16:47:01.539Z,49.45
2022-12-14T16:49:41.545Z,49.40
2022-12-14T16:52:23.934Z,49.45
2022-12-14T16:55:13.599Z,49.71
2022-12-14T16:58:01.494Z,50.10
2022-12-14T17:00:38.488Z,49.64
2022-12-14T17:03:19.599Z,49.99
2022-12-14T17:05:53.203Z,50.36
2022-12-14T17:08:23.986Z,49.94
2022-12-14T17:10:53.821Z,49.62
2022-12-14T17:13:21.625Z,50.67
2022-12-14T17:15:59.600Z,50.43
2022-12-14T17:18:32.023Z,49.15
2022-12-14T17:21:01.426Z,48.81
2022-12-14T17:23:29.645Z,49.22
2022-12-14T17:25:58.692Z,49.84
2022-12-14T17:28:31.446Z,52.33
2022-12-14T17:31:01.612Z,49.28
2022-12-14T17:33:33.971Z,48.63
2022-12-14T17:36:02.053Z,47.11
2022-12-14T17:38:32.343Z,45.34
2022-12-14T17:41:01.584Z,45.80
2022-12-14T17:43:30.455Z,44.51
2022-12-14T17:46:06.387Z,44.15
2022-12-14T17:48:37.347Z,44.53
2022-12-14T17:51:05.302Z,44.53
2022-12-14T17:53:33.481Z,45.03
2022-12-14T17:56:01.798Z,45.88
2022-12-14T17:58:29.505Z,45.52
2022-12-14T18:01:00.037Z,45.86
2022-12-14T18:03:30.275Z,46.04
2022-12-14T18:05:59.371Z,46.19
2022-12-14T18:08:27.123Z,47.29
2022-12-14T18:11:01.694Z,47.38
2022-12-14T18:13:31.918Z,45.56
2022-12-14T18:16:00.692Z,45.52
2022-12-14T18:18:29.497Z,45.33
2022-12-14T18:21:00.576Z,46.10
2022-12-14T18:23:29.881Z,45.64
2022-12-14T18:25:59.692Z,44.31
2022-12-14T18:28:27.388Z,45.82
2022-12-14T18:30:58.846Z,45.94
2022-12-14T18:33:27.799Z,44.14
2022-12-14T18:35:57.194Z,43.02
2022-12-14T18:38:25.364Z,43.43
2022-12-14T18:40:55.895Z,44.68
2022-12-14T18:43:26.170Z,45.68
2022-12-14T18:45:55.407Z,46.54
2022-12-14T18:48:25.137Z,47.25
2022-12-14T18:50:54.649Z,47.70
2022-12-14T18:53:24.052Z,49.13
2022-12-14T18:55:52.698Z,49.73
2022-12-14T19:01:51.138Z,49.90
2022-12-14T19:04:18.946Z,52.77
2022-12-14T19:06:46.589Z,54.87
2022-12-14T19:09:14.889Z,57.13
2022-12-14T19:11:43.555Z,57.76
2022-12-14T19:14:11.634Z,59.30
2022-12-14T19:16:39.742Z,64.05
2022-12-14T19:19:07.496Z,65.30
2022-12-14T19:21:35.172Z,61.58
2022-12-14T19:24:02.844Z,59.05
2022-12-14T19:26:30.789Z,57.47
2022-12-14T19:28:58.659Z,58.67
2022-12-14T19:31:26.397Z,60.31
2022-12-14T19:33:54.321Z,60.92
2022-12-14T19:36:22.055Z,65.16
2022-12-14T19:38:49.930Z,66.99
2022-12-14T19:41:20.444Z,63.49
2022-12-14T19:43:48.575Z,61.30
2022-12-14T19:46:17.859Z,60.62
2022-12-14T19:48:45.949Z,60.04
2022-12-14T19:51:14.246Z,57.99
2022-12-14T19:53:43.974Z,56.69
2022-12-14T19:56:15.553Z,58.50
2022-12-14T19:58:43.548Z,61.95
2022-12-14T20:01:13.453Z,65.43
2022-12-14T20:03:41.639Z,65.07
2022-12-14T20:06:09.759Z,62.77
2022-12-14T20:08:37.522Z,61.36
2022-12-14T20:11:07.670Z,60.94
2022-12-14T20:13:35.694Z,60.38
2022-12-14T20:16:03.769Z,60.05
2022-12-14T20:18:32.053Z,59.34
2022-12-14T20:21:08.895Z,57.82
2022-12-14T20:23:37.681Z,58.87
2022-12-14T20:26:09.649Z,62.79
2022-12-14T20:28:37.279Z,66.52
2022-12-14T20:31:07.313Z,61.99
2022-12-14T20:33:35.643Z,60.11
2022-12-14T20:36:04.070Z,58.70
2022-12-14T20:38:31.734Z,56.00
2022-12-14T20:41:11.748Z,56.80
2022-12-14T20:43:44.458Z,56.57
2022-12-14T20:46:39.064Z,57.51
2022-12-14T20:49:11.090Z,62.06
2022-12-14T20:51:39.940Z,68.64
2022-12-14T20:54:12.265Z,66.35
2022-12-14T20:56:41.989Z,63.64
2022-12-14T20:59:10.796Z,63.27
2022-12-14T21:01:40.653Z,62.20
2022-12-14T21:04:09.648Z,61.37
2022-12-14T21:06:39.781Z,60.88
2022-12-14T21:09:13.806Z,60.41
2022-12-14T21:12:06.671Z,61.20
2022-12-14T21:14:42.694Z,61.57
2022-12-14T21:17:13.544Z,61.04
2022-12-14T21:19:41.261Z,59.58
2022-12-14T21:22:13.036Z,57.36
2022-12-14T21:27:30.432Z,58.50
2022-12-14T21:29:58.405Z,59.11
2022-12-14T21:32:26.273Z,60.19
2022-12-14T21:34:53.883Z,62.35
2022-12-14T21:37:21.999Z,66.50
2022-12-14T21:39:55.131Z,67.33
2022-12-14T21:42:24.640Z,66.49
2022-12-14T21:44:54.161Z,65.49
2022-12-14T21:47:25.657Z,64.26
2022-12-14T21:49:54.243Z,63.09
2022-12-14T21:52:24.241Z,62.12
2022-12-14T21:54:51.938Z,60.79
2022-12-14T21:57:41.562Z,60.88
2022-12-14T22:00:10.812Z,61.28
2022-12-14T22:02:42.348Z,60.53
2022-12-14T22:05:10.907Z,60.28
2022-12-14T22:07:38.663Z,61.03
2022-12-14T22:10:06.606Z,61.29
2022-12-14T22:12:34.271Z,61.21
2022-12-14T22:15:01.912Z,60.65
2022-12-14T22:17:29.650Z,60.55
2022-12-14T22:19:57.484Z,60.34
2022-12-14T22:22:25.070Z,60.16
2022-12-14T22:24:52.659Z,58.56
2022-12-14T22:27:20.324Z,57.48
2022-12-14T22:29:48.119Z,58.05
2022-12-14T22:32:15.971Z,59.10
2022-12-14T22:34:43.686Z,60.86
2022-12-14T22:37:16.465Z,61.16
2022-12-14T22:39:44.542Z,63.38
2022-12-14T22:42:16.469Z,68.25
2022-12-14T22:44:44.415Z,67.84
2022-12-14T22:47:12.166Z,65.77
2022-12-14T22:49:40.111Z,63.46
2022-12-14T22:52:07.706Z,61.86
2022-12-14T22:54:39.183Z,61.09
2022-12-14T22:57:12.038Z,60.62
2022-12-14T22:59:47.832Z,60.68
2022-12-14T23:02:15.533Z,60.89
2022-12-14T23:04:43.528Z,57.17
2022-12-14T23:07:11.140Z,54.72
2022-12-14T23:09:57.204Z,55.21
2022-12-14T23:12:43.590Z,56.59
2022-12-14T23:15:29.831Z,57.75
2022-12-14T23:18:20.238Z,58.76
2022-12-14T23:21:06.435Z,59.91
2022-12-14T23:23:57.051Z,60.61
2022-12-14T23:26:43.548Z,61.67
2022-12-14T23:29:29.957Z,66.34
2022-12-14T23:32:16.575Z,70.64
2022-12-14T23:35:02.860Z,67.74
2022-12-14T23:37:48.957Z,64.28
2022-12-14T23:40:35.445Z,59.33
2022-12-14T23:43:29.175Z,54.16
2022-12-14T23:46:15.561Z,53.71
2022-12-14T23:49:02.704Z,54.67
2022-12-14T23:51:50.411Z,56.39
2022-12-14T23:54:36.748Z,57.79
2022-12-14T23:57:26.027Z,59.09
